createdAt,value
2022-09-14T00:00:16.168Z,9.13
2022-09-14T00:05:17.862Z,6.90
2022-09-14T00:10:19.451Z,7.70
2022-09-14T00:15:21.071Z,7.82
2022-09-14T00:20:22.716Z,12.20
2022-09-14T00:25:26.431Z,9.60
2022-09-14T00:30:28.308Z,9.38
2022-09-14T00:35:29.904Z,7.57
2022-09-14T00:40:31.509Z,12.30
2022-09-14T00:45:33.269Z,6.68
2022-09-14T00:50:35.483Z,7.03
2022-09-14T00:55:37.416Z,7.43
2022-09-14T01:00:39.092Z,6.88
2022-09-14T01:06:17.728Z,6.15
2022-09-14T01:11:25.195Z,6.45
2022-09-14T01:16:55.647Z,7.68
2022-09-14T01:22:07.214Z,7.55
2022-09-14T01:27:26.424Z,6.18
2022-09-14T01:32:37.580Z,6.40
2022-09-14T01:37:47.982Z,11.10
2022-09-14T01:42:55.052Z,7.70
2022-09-14T01:48:07.152Z,6.05
2022-09-14T01:53:17.864Z,6.28
2022-09-14T01:58:37.857Z,11.25
2022-09-14T02:03:49.946Z,7.55
2022-09-14T02:08:52.334Z,7.70
2022-09-14T02:13:54.123Z,7.85
2022-09-14T02:18:56.071Z,6.10
2022-09-14T02:24:00.090Z,7.45
2022-09-14T02:29:01.842Z,6.50
2022-09-14T02:34:11.075Z,6.68
2022-09-14T02:39:33.385Z,7.60
2022-09-14T02:44:52.366Z,10.40
2022-09-14T02:50:16.766Z,6.10
2022-09-14T02:55:21.715Z,6.05
2022-09-14T03:00:23.393Z,12.25
2022-09-14T03:05:25.446Z,8.93
2022-09-14T03:10:27.529Z,6.38
2022-09-14T03:15:29.183Z,8.23
2022-09-14T03:20:32.895Z,8.50
2022-09-14T03:25:38.922Z,9.50
2022-09-14T03:30:40.788Z,10.13
2022-09-14T03:35:42.388Z,6.30
2022-09-14T03:40:44.125Z,14.02
2022-09-14T03:45:45.727Z,7.85
2022-09-14T03:50:47.331Z,6.93
2022-09-14T03:55:49.194Z,9.55
2022-09-14T04:00:51.349Z,9.23
2022-09-14T04:05:56.628Z,9.52
2022-09-14T04:10:58.242Z,6.68
2022-09-14T04:16:00.548Z,8.07
2022-09-14T04:21:08.863Z,7.65
2022-09-14T04:26:16.263Z,9.90
2022-09-14T04:31:18.043Z,8.00
2022-09-14T04:36:22.630Z,5.90
2022-09-14T04:41:25.001Z,11.45
2022-09-14T04:46:29.511Z,9.02
2022-09-14T04:51:33.221Z,6.18
2022-09-14T04:56:37.145Z,8.10
2022-09-14T05:01:42.954Z,11.00
2022-09-14T05:06:44.983Z,7.35
2022-09-14T05:11:47.018Z,6.85
2022-09-14T05:16:48.607Z,7.13
2022-09-14T05:21:50.215Z,7.10
2022-09-14T05:26:52.818Z,10.35
2022-09-14T05:31:56.184Z,6.70
2022-09-14T05:36:57.904Z,7.47
2022-09-14T05:41:59.517Z,9.32
2022-09-14T05:47:01.115Z,7.65
2022-09-14T05:52:03.024Z,7.00
2022-09-14T05:57:04.798Z,8.85
2022-09-14T06:02:06.831Z,6.47
2022-09-14T06:07:18.294Z,8.80
2022-09-14T06:12:20.540Z,10.57
2022-09-14T06:17:22.136Z,7.43
2022-09-14T06:22:23.927Z,11.07
2022-09-14T06:27:25.613Z,9.43
2022-09-14T06:32:30.929Z,9.10
2022-09-14T06:37:32.536Z,9.73
2022-09-14T06:42:34.134Z,7.55
2022-09-14T06:47:37.372Z,8.77
2022-09-14T06:52:40.514Z,10.35
2022-09-14T06:57:43.201Z,9.10
2022-09-14T07:02:45.882Z,8.45
2022-09-14T07:07:53.013Z,8.35
2022-09-14T07:12:55.932Z,11.20
2022-09-14T07:17:59.059Z,9.10
2022-09-14T07:23:00.895Z,8.73
2022-09-14T07:28:02.932Z,8.45
2022-09-14T07:33:05.643Z,14.30
2022-09-14T07:38:07.384Z,7.53
2022-09-14T07:43:10.757Z,9.35
2022-09-14T07:48:12.627Z,9.52
2022-09-14T07:53:14.911Z,10.68
2022-09-14T07:58:16.686Z,17.70
2022-09-14T08:03:18.369Z,13.05
2022-09-14T08:08:21.822Z,10.02
2022-09-14T08:13:23.628Z,15.85
2022-09-14T08:18:25.343Z,11.95
2022-09-14T08:23:27.174Z,15.82
2022-09-14T08:28:28.777Z,17.10
2022-09-14T08:33:31.713Z,12.98
2022-09-14T08:38:33.355Z,12.52
2022-09-14T08:43:35.146Z,14.43
2022-09-14T08:48:48.555Z,16.33
2022-09-14T08:53:53.616Z,16.52
2022-09-14T08:59:18.014Z,13.18
2022-09-14T09:04:24.055Z,12.85
2022-09-14T09:09:46.519Z,17.80
2022-09-14T09:15:00.641Z,15.32
2022-09-14T09:20:06.612Z,17.92
2022-09-14T09:25:20.467Z,18.20
2022-09-14T09:30:22.049Z,16.27
2022-09-14T09:35:26.334Z,17.98
2022-09-14T09:40:42.166Z,16.20
2022-09-14T09:46:07.050Z,17.08
2022-09-14T09:51:17.430Z,18.77
2022-09-14T09:56:24.184Z,19.45
2022-09-14T10:01:34.944Z,22.95
2022-09-14T10:06:42.702Z,21.98
2022-09-14T10:11:46.115Z,21.95
2022-09-14T10:16:47.867Z,22.55
2022-09-14T10:22:26.488Z,25.20
2022-09-14T10:27:50.587Z,24.10
2022-09-14T10:33:04.913Z,24.85
2022-09-14T10:38:33.879Z,24.02
2022-09-14T10:43:57.357Z,26.73
2022-09-14T10:49:24.304Z,28.42
2022-09-14T10:54:48.504Z,24.50
2022-09-14T11:00:03.294Z,23.25
2022-09-14T11:05:34.461Z,25.92
2022-09-14T11:11:17.890Z,23.60
2022-09-14T11:16:40.753Z,25.38
2022-09-14T11:22:03.529Z,28.23
2022-09-14T11:27:32.341Z,26.17
2022-09-14T11:32:40.497Z,27.00
2022-09-14T11:38:00.840Z,27.80
2022-09-14T11:43:17.543Z,28.30
2022-09-14T11:48:45.157Z,28.90
2022-09-14T11:53:47.372Z,29.75
2022-09-14T11:58:49.798Z,31.73
2022-09-14T12:04:02.165Z,28.17
2022-09-14T12:09:29.876Z,27.92
2022-09-14T12:14:36.666Z,28.75
2022-09-14T12:19:39.205Z,25.80
2022-09-14T12:24:40.861Z,26.55
2022-09-14T12:29:42.809Z,26.75
2022-09-14T12:34:44.439Z,30.48
2022-09-14T12:40:32.442Z,26.75
2022-09-14T12:46:18.498Z,25.73
2022-09-14T12:51:32.696Z,24.33
2022-09-14T12:56:37.078Z,24.40
2022-09-14T13:02:10.236Z,25.08
2022-09-14T13:07:17.971Z,23.05
2022-09-14T13:12:37.530Z,22.60
2022-09-14T13:17:56.499Z,21.52
2022-09-14T13:22:58.528Z,23.38
2022-09-14T13:28:05.940Z,24.83
2022-09-14T13:33:15.463Z,23.27
2022-09-14T13:38:28.474Z,26.73
2022-09-14T13:43:30.352Z,24.60
2022-09-14T13:48:32.058Z,27.23
2022-09-14T13:53:39.170Z,30.33
2022-09-14T13:58:40.847Z,25.05
2022-09-14T14:03:49.099Z,27.63
2022-09-14T14:09:00.608Z,25.73
2022-09-14T14:14:22.391Z,26.13
2022-09-14T14:19:31.133Z,26.92
2022-09-14T14:24:32.766Z,28.02
2022-09-14T14:29:34.409Z,29.90
2022-09-14T14:34:36.440Z,30.02
2022-09-14T14:39:39.047Z,32.70
2022-09-14T14:44:42.283Z,32.97
2022-09-14T14:49:43.997Z,30.98
2022-09-14T14:54:45.641Z,31.27
2022-09-14T14:59:47.264Z,31.23
2022-09-14T15:04:48.999Z,35.00
2022-09-14T15:09:50.637Z,32.90
2022-09-14T15:14:52.248Z,37.10
2022-09-14T15:19:53.869Z,33.33
2022-09-14T15:24:55.459Z,39.03
2022-09-14T15:29:57.476Z,41.00
2022-09-14T15:34:59.099Z,43.53
2022-09-14T15:40:00.893Z,38.10
2022-09-14T15:45:03.819Z,32.92
2022-09-14T15:50:06.178Z,35.83
2022-09-14T15:55:10.313Z,34.38
2022-09-14T16:00:13.792Z,34.28
2022-09-14T16:05:16.270Z,42.25
2022-09-14T16:10:17.872Z,40.80
2022-09-14T16:15:19.546Z,43.33
2022-09-14T16:20:21.719Z,39.78
2022-09-14T16:25:23.350Z,41.58
2022-09-14T16:30:24.960Z,40.13
2022-09-14T16:35:26.571Z,31.58
2022-09-14T16:40:28.259Z,45.38
2022-09-14T16:45:29.964Z,38.35
2022-09-14T16:50:31.808Z,35.40
2022-09-14T16:55:33.447Z,34.47
2022-09-14T17:00:35.531Z,34.78
2022-09-14T17:05:37.154Z,37.88
2022-09-14T17:10:38.781Z,36.75
2022-09-14T17:15:40.417Z,33.13
2022-09-14T17:20:52.619Z,33.30
2022-09-14T17:25:55.285Z,31.67
2022-09-14T17:30:59.499Z,30.15
2022-09-14T17:36:02.649Z,36.75
2022-09-14T17:41:07.181Z,39.47
2022-09-14T17:46:14.201Z,39.78
2022-09-14T17:51:21.152Z,29.83
2022-09-14T17:56:24.634Z,24.00
2022-09-14T18:01:26.292Z,22.17
2022-09-14T18:06:31.282Z,21.08
2022-09-14T18:11:33.481Z,18.08
2022-09-14T18:16:35.127Z,17.02
2022-09-14T18:21:37.045Z,17.45
2022-09-14T18:26:38.687Z,16.38
2022-09-14T18:31:40.448Z,14.73
2022-09-14T18:36:42.128Z,14.68
2022-09-14T18:41:44.208Z,11.65
2022-09-14T18:46:46.891Z,11.88
2022-09-14T18:51:48.798Z,8.95
2022-09-14T18:56:51.133Z,10.07
2022-09-14T19:01:52.787Z,8.60
2022-09-14T19:06:54.421Z,10.00
2022-09-14T19:11:56.046Z,7.32
2022-09-14T19:16:58.459Z,3.92
2022-09-14T19:22:00.050Z,4.50
2022-09-14T19:27:01.725Z,3.05
2022-09-14T19:32:03.379Z,3.08
2022-09-14T19:37:05.189Z,3.85
2022-09-14T19:42:06.817Z,2.80
2022-09-14T19:47:08.437Z,2.47
2022-09-14T19:52:10.048Z,2.67
2022-09-14T19:57:11.765Z,2.92
2022-09-14T20:02:13.801Z,3.15
2022-09-14T20:07:15.542Z,3.13
2022-09-14T20:12:17.128Z,3.45
2022-09-14T20:17:18.774Z,3.42
2022-09-14T20:22:20.401Z,3.15
2022-09-14T20:27:22.143Z,3.83
2022-09-14T20:32:25.170Z,4.47
2022-09-14T20:37:28.577Z,5.57
2022-09-14T20:42:30.174Z,4.38
2022-09-14T20:47:31.793Z,4.75
2022-09-14T20:52:33.381Z,6.75
2022-09-14T20:57:34.972Z,6.63
2022-09-14T21:02:37.638Z,6.05
2022-09-14T21:07:39.255Z,4.72
2022-09-14T21:12:40.912Z,5.70
2022-09-14T21:17:42.513Z,4.70
2022-09-14T21:22:45.411Z,1.98
2022-09-14T21:27:47.027Z,1.60
2022-09-14T21:32:50.173Z,1.00
2022-09-14T21:37:51.817Z,1.13
2022-09-14T21:42:54.431Z,1.67
2022-09-14T21:47:56.007Z,2.60
2022-09-14T21:52:57.679Z,1.88
2022-09-14T21:57:59.316Z,1.38
2022-09-14T22:03:01.070Z,1.10
2022-09-14T22:08:03.088Z,1.63
2022-09-14T22:13:04.685Z,0.93
2022-09-14T22:18:07.482Z,1.33
2022-09-14T22:23:09.280Z,3.70
2022-09-14T22:28:10.917Z,2.60
2022-09-14T22:33:12.509Z,2.78
2022-09-14T22:38:14.646Z,2.88
2022-09-14T22:43:16.264Z,5.20
2022-09-14T22:48:18.794Z,3.75
2022-09-14T22:53:21.619Z,4.55
2022-09-14T22:58:26.453Z,5.20
2022-09-14T23:03:28.052Z,7.30
2022-09-14T23:08:30.164Z,6.68
2022-09-14T23:13:34.762Z,5.30
2022-09-14T23:18:36.362Z,5.45
2022-09-14T23:23:41.000Z,6.63
2022-09-14T23:28:42.627Z,4.00
2022-09-14T23:33:44.224Z,3.50
2022-09-14T23:38:48.128Z,4.15
2022-09-14T23:43:50.874Z,5.05
2022-09-14T23:48:52.689Z,5.07
2022-09-14T23:53:54.413Z,4.43
2022-09-14T23:58:56.395Z,6.65
